sensor_id;sensor_type;location;lat;lon;timestamp;temperature;humidity
65972;SHT31;52726;48.852;9.152;2023-07-31T00:00:29;15.98;74.73
65972;SHT31;52726;48.852;9.152;2023-07-31T00:02:55;15.93;75.47
65972;SHT31;52726;48.852;9.152;2023-07-31T00:05:21;15.83;74.71
65972;SHT31;52726;48.852;9.152;2023-07-31T00:07:46;15.78;75.57
65972;SHT31;52726;48.852;9.152;2023-07-31T00:10:12;15.69;75.69
65972;SHT31;52726;48.852;9.152;2023-07-31T00:12:42;15.66;76.22
65972;SHT31;52726;48.852;9.152;2023-07-31T00:15:08;15.65;75.64
65972;SHT31;52726;48.852;9.152;2023-07-31T00:17:34;15.66;75.21
65972;SHT31;52726;48.852;9.152;2023-07-31T00:19:59;15.64;75.15
65972;SHT31;52726;48.852;9.152;2023-07-31T00:22:24;15.61;75.07
65972;SHT31;52726;48.852;9.152;2023-07-31T00:24:50;15.68;74.71
65972;SHT31;52726;48.852;9.152;2023-07-31T00:27:15;15.66;74.82
65972;SHT31;52726;48.852;9.152;2023-07-31T00:29:40;15.66;75.32
65972;SHT31;52726;48.852;9.152;2023-07-31T00:32:06;15.62;75.79
65972;SHT31;52726;48.852;9.152;2023-07-31T00:34:32;15.62;75.80
65972;SHT31;52726;48.852;9.152;2023-07-31T00:36:57;15.55;76.35
65972;SHT31;52726;48.852;9.152;2023-07-31T00:39:22;15.50;76.06
65972;SHT31;52726;48.852;9.152;2023-07-31T00:41:48;15.40;76.21
65972;SHT31;52726;48.852;9.152;2023-07-31T00:44:13;15.27;76.96
65972;SHT31;52726;48.852;9.152;2023-07-31T00:46:38;15.16;77.46
65972;SHT31;52726;48.852;9.152;2023-07-31T00:49:04;15.02;78.14
65972;SHT31;52726;48.852;9.152;2023-07-31T00:51:30;14.93;78.47
65972;SHT31;52726;48.852;9.152;2023-07-31T00:53:55;14.95;77.98
65972;SHT31;52726;48.852;9.152;2023-07-31T00:56:22;14.95;77.98
65972;SHT31;52726;48.852;9.152;2023-07-31T00:58:48;14.99;78.82
65972;SHT31;52726;48.852;9.152;2023-07-31T01:01:14;14.96;78.31
65972;SHT31;52726;48.852;9.152;2023-07-31T01:03:39;14.90;79.10
65972;SHT31;52726;48.852;9.152;2023-07-31T01:08:42;14.62;80.86
65972;SHT31;52726;48.852;9.152;2023-07-31T01:11:22;14.52;81.66
65972;SHT31;52726;48.852;9.152;2023-07-31T01:13:51;14.37;81.39
65972;SHT31;52726;48.852;9.152;2023-07-31T01:16:16;14.27;81.98
65972;SHT31;52726;48.852;9.152;2023-07-31T01:18:42;14.21;82.40
65972;SHT31;52726;48.852;9.152;2023-07-31T01:21:28;14.20;81.98
65972;SHT31;52726;48.852;9.152;2023-07-31T01:24:21;14.23;81.32
65972;SHT31;52726;48.852;9.152;2023-07-31T01:26:49;14.25;82.55
65972;SHT31;52726;48.852;9.152;2023-07-31T01:29:30;14.28;81.88
65972;SHT31;52726;48.852;9.152;2023-07-31T01:32:01;14.35;81.90
65972;SHT31;52726;48.852;9.152;2023-07-31T01:34:27;14.40;81.74
65972;SHT31;52726;48.852;9.152;2023-07-31T01:36:53;14.46;81.71
65972;SHT31;52726;48.852;9.152;2023-07-31T01:39:20;14.48;81.32
65972;SHT31;52726;48.852;9.152;2023-07-31T01:41:45;14.54;81.22
65972;SHT31;52726;48.852;9.152;2023-07-31T01:44:11;14.51;81.37
65972;SHT31;52726;48.852;9.152;2023-07-31T01:46:36;14.51;81.18
65972;SHT31;52726;48.852;9.152;2023-07-31T01:49:01;14.51;80.64
65972;SHT31;52726;48.852;9.152;2023-07-31T01:51:27;14.54;80.75
65972;SHT31;52726;48.852;9.152;2023-07-31T01:53:52;14.57;80.66
65972;SHT31;52726;48.852;9.152;2023-07-31T01:56:17;14.58;80.60
65972;SHT31;52726;48.852;9.152;2023-07-31T01:58:43;14.58;80.63
65972;SHT31;52726;48.852;9.152;2023-07-31T02:01:08;14.59;80.32
65972;SHT31;52726;48.852;9.152;2023-07-31T02:03:33;14.59;80.14
65972;SHT31;52726;48.852;9.152;2023-07-31T02:05:59;14.57;80.53
65972;SHT31;52726;48.852;9.152;2023-07-31T02:08:24;14.58;80.58
65972;SHT31;52726;48.852;9.152;2023-07-31T02:10:49;14.55;80.50
65972;SHT31;52726;48.852;9.152;2023-07-31T02:13:14;14.52;81.14
65972;SHT31;52726;48.852;9.152;2023-07-31T02:15:40;14.49;80.81
65972;SHT31;52726;48.852;9.152;2023-07-31T02:18:05;14.46;81.23
65972;SHT31;52726;48.852;9.152;2023-07-31T02:20:33;14.42;81.14
65972;SHT31;52726;48.852;9.152;2023-07-31T02:22:59;14.44;81.54
65972;SHT31;52726;48.852;9.152;2023-07-31T02:25:24;14.41;81.21
65972;SHT31;52726;48.852;9.152;2023-07-31T02:27:49;14.40;81.75
65972;SHT31;52726;48.852;9.152;2023-07-31T02:30:15;14.35;81.53
65972;SHT31;52726;48.852;9.152;2023-07-31T02:32:40;14.34;81.55
65972;SHT31;52726;48.852;9.152;2023-07-31T02:35:06;14.34;81.36
65972;SHT31;52726;48.852;9.152;2023-07-31T02:37:31;14.35;81.42
65972;SHT31;52726;48.852;9.152;2023-07-31T02:39:56;14.25;81.98
65972;SHT31;52726;48.852;9.152;2023-07-31T02:42:22;14.20;81.73
65972;SHT31;52726;48.852;9.152;2023-07-31T02:44:47;14.23;81.72
65972;SHT31;52726;48.852;9.152;2023-07-31T02:47:12;14.25;82.18
65972;SHT31;52726;48.852;9.152;2023-07-31T02:49:38;14.25;82.23
65972;SHT31;52726;48.852;9.152;2023-07-31T02:52:03;14.23;82.18
65972;SHT31;52726;48.852;9.152;2023-07-31T02:54:29;14.25;81.88
65972;SHT31;52726;48.852;9.152;2023-07-31T02:56:54;14.27;81.68
65972;SHT31;52726;48.852;9.152;2023-07-31T02:59:20;14.24;82.12
65972;SHT31;52726;48.852;9.152;2023-07-31T03:01:45;14.18;82.82
65972;SHT31;52726;48.852;9.152;2023-07-31T03:04:10;14.09;83.23
65972;SHT31;52726;48.852;9.152;2023-07-31T03:06:36;14.00;83.68
65972;SHT31;52726;48.852;9.152;2023-07-31T03:09:01;13.93;83.99
65972;SHT31;52726;48.852;9.152;2023-07-31T03:11:26;13.90;83.73
65972;SHT31;52726;48.852;9.152;2023-07-31T03:13:52;13.84;84.00
65972;SHT31;52726;48.852;9.152;2023-07-31T03:16:17;13.79;83.58
65972;SHT31;52726;48.852;9.152;2023-07-31T03:18:42;13.82;84.06
65972;SHT31;52726;48.852;9.152;2023-07-31T03:21:08;13.82;84.44
65972;SHT31;52726;48.852;9.152;2023-07-31T03:23:33;13.87;84.03
65972;SHT31;52726;48.852;9.152;2023-07-31T03:26:05;13.87;84.79
65972;SHT31;52726;48.852;9.152;2023-07-31T03:28:30;13.87;84.49
65972;SHT31;52726;48.852;9.152;2023-07-31T03:30:56;13.86;84.76
65972;SHT31;52726;48.852;9.152;2023-07-31T03:33:21;13.84;84.53
65972;SHT31;52726;48.852;9.152;2023-07-31T03:35:46;13.84;84.72
65972;SHT31;52726;48.852;9.152;2023-07-31T03:38:12;13.83;83.90
65972;SHT31;52726;48.852;9.152;2023-07-31T03:40:37;13.82;84.60
65972;SHT31;52726;48.852;9.152;2023-07-31T03:43:02;13.80;84.33
65972;SHT31;52726;48.852;9.152;2023-07-31T03:45:28;13.80;83.72
65972;SHT31;52726;48.852;9.152;2023-07-31T03:47:53;13.83;83.39
65972;SHT31;52726;48.852;9.152;2023-07-31T03:50:19;13.84;82.60
65972;SHT31;52726;48.852;9.152;2023-07-31T03:52:45;13.90;82.43
65972;SHT31;52726;48.852;9.152;2023-07-31T03:55:10;13.93;82.62
65972;SHT31;52726;48.852;9.152;2023-07-31T03:57:35;14.00;81.93
65972;SHT31;52726;48.852;9.152;2023-07-31T04:00:01;14.09;81.64
65972;SHT31;52726;48.852;9.152;2023-07-31T04:02:26;14.20;81.43
65972;SHT31;52726;48.852;9.152;2023-07-31T04:04:51;14.27;80.85
65972;SHT31;52726;48.852;9.152;2023-07-31T04:07:17;14.37;80.38
65972;SHT31;52726;48.852;9.152;2023-07-31T04:09:42;14.49;79.61
65972;SHT31;52726;48.852;9.152;2023-07-31T04:12:07;14.58;79.11
65972;SHT31;52726;48.852;9.152;2023-07-31T04:14:33;14.67;79.25
65972;SHT31;52726;48.852;9.152;2023-07-31T04:16:58;14.72;78.70
65972;SHT31;52726;48.852;9.152;2023-07-31T04:19:24;14.80;78.83
65972;SHT31;52726;48.852;9.152;2023-07-31T04:21:49;14.85;78.08
65972;SHT31;52726;48.852;9.152;2023-07-31T04:24:14;14.92;78.17
65972;SHT31;52726;48.852;9.152;2023-07-31T04:26:40;14.97;77.88
65972;SHT31;52726;48.852;9.152;2023-07-31T04:29:05;15.03;78.29
65972;SHT31;52726;48.852;9.152;2023-07-31T04:31:30;15.07;77.64
65972;SHT31;52726;48.852;9.152;2023-07-31T04:33:56;15.13;77.50
65972;SHT31;52726;48.852;9.152;2023-07-31T04:36:21;15.19;77.38
65972;SHT31;52726;48.852;9.152;2023-07-31T04:38:46;15.26;77.69
65972;SHT31;52726;48.852;9.152;2023-07-31T04:41:12;15.28;77.30
65972;SHT31;52726;48.852;9.152;2023-07-31T04:43:37;15.33;77.23
65972;SHT31;52726;48.852;9.152;2023-07-31T04:46:05;15.38;76.61
65972;SHT31;52726;48.852;9.152;2023-07-31T04:48:30;15.45;76.71
65972;SHT31;52726;48.852;9.152;2023-07-31T04:50:55;15.51;76.50
65972;SHT31;52726;48.852;9.152;2023-07-31T04:53:21;15.57;76.12
65972;SHT31;52726;48.852;9.152;2023-07-31T04:55:46;15.66;75.64
65972;SHT31;52726;48.852;9.152;2023-07-31T04:58:11;15.68;76.10
65972;SHT31;52726;48.852;9.152;2023-07-31T05:00:37;15.75;75.40
65972;SHT31;52726;48.852;9.152;2023-07-31T05:03:02;15.77;75.99
65972;SHT31;52726;48.852;9.152;2023-07-31T05:05:27;15.81;75.43
65972;SHT31;52726;48.852;9.152;2023-07-31T05:07:53;15.85;75.48
65972;SHT31;52726;48.852;9.152;2023-07-31T05:10:18;15.86;74.43
65972;SHT31;52726;48.852;9.152;2023-07-31T05:12:43;15.91;75.10
65972;SHT31;52726;48.852;9.152;2023-07-31T05:15:09;15.96;75.03
65972;SHT31;52726;48.852;9.152;2023-07-31T05:17:34;16.02;74.36
65972;SHT31;52726;48.852;9.152;2023-07-31T05:20:00;16.09;74.89
65972;SHT31;52726;48.852;9.152;2023-07-31T05:22:25;16.10;74.37
65972;SHT31;52726;48.852;9.152;2023-07-31T05:24:50;16.19;74.47
65972;SHT31;52726;48.852;9.152;2023-07-31T05:27:15;16.26;74.02
65972;SHT31;52726;48.852;9.152;2023-07-31T05:29:43;16.33;73.34
65972;SHT31;52726;48.852;9.152;2023-07-31T05:32:09;16.41;73.03
65972;SHT31;52726;48.852;9.152;2023-07-31T05:34:34;16.50;73.39
65972;SHT31;52726;48.852;9.152;2023-07-31T05:36:59;16.56;72.45
65972;SHT31;52726;48.852;9.152;2023-07-31T05:39:25;16.65;71.86
65972;SHT31;52726;48.852;9.152;2023-07-31T05:41:50;16.71;72.51
65972;SHT31;52726;48.852;9.152;2023-07-31T05:44:15;16.75;71.65
65972;SHT31;52726;48.852;9.152;2023-07-31T05:46:41;16.84;72.22
65972;SHT31;52726;48.852;9.152;2023-07-31T05:49:06;16.91;72.52
65972;SHT31;52726;48.852;9.152;2023-07-31T05:51:32;16.98;71.40
65972;SHT31;52726;48.852;9.152;2023-07-31T05:53:57;17.02;71.75
65972;SHT31;52726;48.852;9.152;2023-07-31T05:56:22;17.09;71.86
65972;SHT31;52726;48.852;9.152;2023-07-31T05:58:48;17.08;70.29
65972;SHT31;52726;48.852;9.152;2023-07-31T06:01:15;17.15;71.00
65972;SHT31;52726;48.852;9.152;2023-07-31T06:03:40;17.15;70.58
65972;SHT31;52726;48.852;9.152;2023-07-31T06:06:06;17.20;70.70
65972;SHT31;52726;48.852;9.152;2023-07-31T06:08:31;17.22;71.57
65972;SHT31;52726;48.852;9.152;2023-07-31T06:10:56;17.26;71.31
65972;SHT31;52726;48.852;9.152;2023-07-31T06:13:22;17.36;70.95
65972;SHT31;52726;48.852;9.152;2023-07-31T06:15:47;17.63;70.38
65972;SHT31;52726;48.852;9.152;2023-07-31T06:18:12;17.75;68.78
65972;SHT31;52726;48.852;9.152;2023-07-31T06:20:38;17.88;69.24
65972;SHT31;52726;48.852;9.152;2023-07-31T06:23:05;17.90;69.91
65972;SHT31;52726;48.852;9.152;2023-07-31T06:25:31;18.00;69.49
65972;SHT31;52726;48.852;9.152;2023-07-31T06:27:56;18.28;69.90
65972;SHT31;52726;48.852;9.152;2023-07-31T06:30:21;18.42;68.60
65972;SHT31;52726;48.852;9.152;2023-07-31T06:32:47;18.59;67.74
65972;SHT31;52726;48.852;9.152;2023-07-31T06:35:12;18.67;67.32
65972;SHT31;52726;48.852;9.152;2023-07-31T06:37:37;18.78;66.29
65972;SHT31;52726;48.852;9.152;2023-07-31T06:40:06;18.80;67.67
65972;SHT31;52726;48.852;9.152;2023-07-31T06:42:34;18.84;67.53
65972;SHT31;52726;48.852;9.152;2023-07-31T06:45:00;18.88;68.26
65972;SHT31;52726;48.852;9.152;2023-07-31T06:47:25;19.25;65.38
65972;SHT31;52726;48.852;9.152;2023-07-31T06:49:51;19.98;63.40
65972;SHT31;52726;48.852;9.152;2023-07-31T06:52:16;20.58;62.59
65972;SHT31;52726;48.852;9.152;2023-07-31T06:54:42;21.11;60.55
65972;SHT31;52726;48.852;9.152;2023-07-31T06:57:07;21.42;59.12
65972;SHT31;52726;48.852;9.152;2023-07-31T06:59:33;21.28;60.52
65972;SHT31;52726;48.852;9.152;2023-07-31T07:01:58;21.72;60.13
65972;SHT31;52726;48.852;9.152;2023-07-31T07:04:24;21.71;58.16
65972;SHT31;52726;48.852;9.152;2023-07-31T07:06:49;21.34;61.08
65972;SHT31;52726;48.852;9.152;2023-07-31T07:09:14;21.04;59.52
65972;SHT31;52726;48.852;9.152;2023-07-31T07:11:50;21.54;58.09
65972;SHT31;52726;48.852;9.152;2023-07-31T07:14:15;22.07;57.66
65972;SHT31;52726;48.852;9.152;2023-07-31T07:16:41;22.67;55.59
65972;SHT31;52726;48.852;9.152;2023-07-31T07:19:06;22.57;56.82
65972;SHT31;52726;48.852;9.152;2023-07-31T07:21:32;21.98;57.30
65972;SHT31;52726;48.852;9.152;2023-07-31T07:23:57;21.65;59.52
65972;SHT31;52726;48.852;9.152;2023-07-31T07:26:22;21.58;58.93
65972;SHT31;52726;48.852;9.152;2023-07-31T07:28:48;21.62;58.10
65972;SHT31;52726;48.852;9.152;2023-07-31T07:31:13;21.30;58.48
65972;SHT31;52726;48.852;9.152;2023-07-31T07:33:38;20.77;60.36
65972;SHT31;52726;48.852;9.152;2023-07-31T07:36:04;20.68;60.76
65972;SHT31;52726;48.852;9.152;2023-07-31T07:38:31;20.71;60.88
65972;SHT31;52726;48.852;9.152;2023-07-31T07:40:56;20.92;60.32
65972;SHT31;52726;48.852;9.152;2023-07-31T07:43:22;21.23;59.76
65972;SHT31;52726;48.852;9.152;2023-07-31T07:45:47;21.79;58.01
65972;SHT31;52726;48.852;9.152;2023-07-31T07:48:12;22.21;58.60
65972;SHT31;52726;48.852;9.152;2023-07-31T07:50:38;22.03;57.90
65972;SHT31;52726;48.852;9.152;2023-07-31T07:53:04;22.41;57.28
65972;SHT31;52726;48.852;9.152;2023-07-31T07:55:29;23.01;54.93
65972;SHT31;52726;48.852;9.152;2023-07-31T07:57:54;22.99;55.10
65972;SHT31;52726;48.852;9.152;2023-07-31T08:00:20;23.97;54.31
65972;SHT31;52726;48.852;9.152;2023-07-31T08:02:45;24.66;52.91
65972;SHT31;52726;48.852;9.152;2023-07-31T08:05:10;24.60;51.82
65972;SHT31;52726;48.852;9.152;2023-07-31T08:07:36;23.95;53.13
65972;SHT31;52726;48.852;9.152;2023-07-31T08:10:01;23.66;53.79
65972;SHT31;52726;48.852;9.152;2023-07-31T08:12:27;23.75;54.29
65972;SHT31;52726;48.852;9.152;2023-07-31T08:14:52;24.48;51.27
65972;SHT31;52726;48.852;9.152;2023-07-31T08:17:18;25.00;50.43
65972;SHT31;52726;48.852;9.152;2023-07-31T08:19:43;24.24;51.65
65972;SHT31;52726;48.852;9.152;2023-07-31T08:22:09;24.49;52.47
65972;SHT31;52726;48.852;9.152;2023-07-31T08:24:34;24.39;51.80
65972;SHT31;52726;48.852;9.152;2023-07-31T08:27:00;24.74;52.19
65972;SHT31;52726;48.852;9.152;2023-07-31T08:29:25;25.07;50.36
65972;SHT31;52726;48.852;9.152;2023-07-31T08:31:51;24.94;49.81
65972;SHT31;52726;48.852;9.152;2023-07-31T08:34:16;25.25;51.03
65972;SHT31;52726;48.852;9.152;2023-07-31T08:36:42;24.86;50.51
65972;SHT31;52726;48.852;9.152;2023-07-31T08:39:07;24.00;53.39
65972;SHT31;52726;48.852;9.152;2023-07-31T08:41:37;24.37;52.99
65972;SHT31;52726;48.852;9.152;2023-07-31T08:44:03;24.49;51.92
65972;SHT31;52726;48.852;9.152;2023-07-31T08:46:29;24.16;52.25
65972;SHT31;52726;48.852;9.152;2023-07-31T08:48:55;24.05;53.58
65972;SHT31;52726;48.852;9.152;2023-07-31T08:51:20;24.21;54.03
65972;SHT31;52726;48.852;9.152;2023-07-31T08:53:48;24.73;51.19
65972;SHT31;52726;48.852;9.152;2023-07-31T08:56:15;24.30;53.20
65972;SHT31;52726;48.852;9.152;2023-07-31T08:58:42;24.19;52.82
65972;SHT31;52726;48.852;9.152;2023-07-31T09:01:09;23.71;51.96
65972;SHT31;52726;48.852;9.152;2023-07-31T09:03:36;24.06;54.06
65972;SHT31;52726;48.852;9.152;2023-07-31T09:06:03;23.78;53.12
65972;SHT31;52726;48.852;9.152;2023-07-31T09:08:31;23.93;54.48
65972;SHT31;52726;48.852;9.152;2023-07-31T09:11:01;24.24;53.41
65972;SHT31;52726;48.852;9.152;2023-07-31T09:13:29;23.79;52.88
65972;SHT31;52726;48.852;9.152;2023-07-31T09:15:55;23.51;54.40
65972;SHT31;52726;48.852;9.152;2023-07-31T09:18:20;23.36;54.35
65972;SHT31;52726;48.852;9.152;2023-07-31T09:21:00;22.96;55.29
65972;SHT31;52726;48.852;9.152;2023-07-31T09:23:40;23.54;55.94
65972;SHT31;52726;48.852;9.152;2023-07-31T09:26:05;24.24;53.24
65972;SHT31;52726;48.852;9.152;2023-07-31T09:28:31;23.84;54.50
65972;SHT31;52726;48.852;9.152;2023-07-31T09:30:56;23.73;56.08
65972;SHT31;52726;48.852;9.152;2023-07-31T09:33:22;23.82;55.48
65972;SHT31;52726;48.852;9.152;2023-07-31T09:35:50;23.61;54.88
65972;SHT31;52726;48.852;9.152;2023-07-31T09:38:16;23.66;54.62
65972;SHT31;52726;48.852;9.152;2023-07-31T09:40:44;23.81;54.91
65972;SHT31;52726;48.852;9.152;2023-07-31T09:43:22;24.14;53.92
65972;SHT31;52726;48.852;9.152;2023-07-31T09:45:55;23.61;54.89
65972;SHT31;52726;48.852;9.152;2023-07-31T09:48:23;24.16;55.40
65972;SHT31;52726;48.852;9.152;2023-07-31T09:50:50;24.18;54.66
65972;SHT31;52726;48.852;9.152;2023-07-31T09:53:16;24.42;53.25
65972;SHT31;52726;48.852;9.152;2023-07-31T09:55:44;24.83;53.79
65972;SHT31;52726;48.852;9.152;2023-07-31T09:58:11;25.19;53.25
65972;SHT31;52726;48.852;9.152;2023-07-31T10:00:37;24.51;52.01
65972;SHT31;52726;48.852;9.152;2023-07-31T10:03:08;23.93;53.69
65972;SHT31;52726;48.852;9.152;2023-07-31T10:05:36;24.21;53.41
65972;SHT31;52726;48.852;9.152;2023-07-31T10:08:01;24.39;52.23
65972;SHT31;52726;48.852;9.152;2023-07-31T10:10:27;24.77;53.75
65972;SHT31;52726;48.852;9.152;2023-07-31T10:12:54;24.43;52.06
65972;SHT31;52726;48.852;9.152;2023-07-31T10:15:21;24.21;53.14
65972;SHT31;52726;48.852;9.152;2023-07-31T10:17:48;24.24;53.13
65972;SHT31;52726;48.852;9.152;2023-07-31T10:20:14;24.26;54.96
65972;SHT31;52726;48.852;9.152;2023-07-31T10:22:42;24.21;54.26
65972;SHT31;52726;48.852;9.152;2023-07-31T10:25:08;24.09;52.54
65972;SHT31;52726;48.852;9.152;2023-07-31T10:27:35;24.04;53.59
65972;SHT31;52726;48.852;9.152;2023-07-31T10:30:03;24.01;51.73
65972;SHT31;52726;48.852;9.152;2023-07-31T10:32:29;23.81;52.36
65972;SHT31;52726;48.852;9.152;2023-07-31T10:34:55;24.09;52.94
65972;SHT31;52726;48.852;9.152;2023-07-31T10:37:28;24.09;52.45
65972;SHT31;52726;48.852;9.152;2023-07-31T10:39:58;23.98;53.15
65972;SHT31;52726;48.852;9.152;2023-07-31T10:42:31;23.91;52.37
65972;SHT31;52726;48.852;9.152;2023-07-31T10:45:08;24.16;54.31
65972;SHT31;52726;48.852;9.152;2023-07-31T10:48:02;23.67;53.05
65972;SHT31;52726;48.852;9.152;2023-07-31T10:50:29;23.79;54.78
65972;SHT31;52726;48.852;9.152;2023-07-31T10:52:56;23.77;54.17
65972;SHT31;52726;48.852;9.152;2023-07-31T10:55:31;23.61;54.31
65972;SHT31;52726;48.852;9.152;2023-07-31T10:58:05;23.46;54.52
65972;SHT31;52726;48.852;9.152;2023-07-31T11:00:31;23.45;56.22
65972;SHT31;52726;48.852;9.152;2023-07-31T11:03:10;23.16;54.20
65972;SHT31;52726;48.852;9.152;2023-07-31T11:08:15;23.77;55.52
65972;SHT31;52726;48.852;9.152;2023-07-31T11:10:42;24.02;55.52
65972;SHT31;52726;48.852;9.152;2023-07-31T11:13:08;24.18;54.29
65972;SHT31;52726;48.852;9.152;2023-07-31T11:15:33;23.95;53.77
65972;SHT31;52726;48.852;9.152;2023-07-31T11:18:00;24.24;55.83
65972;SHT31;52726;48.852;9.152;2023-07-31T11:20:32;24.35;52.49
65972;SHT31;52726;48.852;9.152;2023-07-31T11:23:06;24.04;52.25
65972;SHT31;52726;48.852;9.152;2023-07-31T11:25:32;24.00;52.84
65972;SHT31;52726;48.852;9.152;2023-07-31T11:28:06;24.00;52.60
65972;SHT31;52726;48.852;9.152;2023-07-31T11:30:32;24.01;53.31
65972;SHT31;52726;48.852;9.152;2023-07-31T11:33:00;24.32;53.96
65972;SHT31;52726;48.852;9.152;2023-07-31T11:35:34;24.33;53.52
65972;SHT31;52726;48.852;9.152;2023-07-31T11:38:00;24.30;53.50
65972;SHT31;52726;48.852;9.152;2023-07-31T11:40:25;24.12;54.62
65972;SHT31;52726;48.852;9.152;2023-07-31T11:42:57;24.19;54.32
65972;SHT31;52726;48.852;9.152;2023-07-31T11:45:25;24.04;54.81
65972;SHT31;52726;48.852;9.152;2023-07-31T11:47:52;24.02;54.84
65972;SHT31;52726;48.852;9.152;2023-07-31T11:50:17;23.89;53.91
65972;SHT31;52726;48.852;9.152;2023-07-31T11:52:44;23.78;53.14
65972;SHT31;52726;48.852;9.152;2023-07-31T11:55:12;23.88;55.95
65972;SHT31;52726;48.852;9.152;2023-07-31T11:57:39;23.98;52.90
65972;SHT31;52726;48.852;9.152;2023-07-31T12:00:07;23.95;53.63
65972;SHT31;52726;48.852;9.152;2023-07-31T12:02:33;24.29;52.73
65972;SHT31;52726;48.852;9.152;2023-07-31T12:04:59;24.09;53.19
65972;SHT31;52726;48.852;9.152;2023-07-31T12:07:24;24.04;53.96
65972;SHT31;52726;48.852;9.152;2023-07-31T12:09:51;23.97;53.77
65972;SHT31;52726;48.852;9.152;2023-07-31T12:12:22;23.97;54.02
65972;SHT31;52726;48.852;9.152;2023-07-31T12:14:48;23.70;53.62
65972;SHT31;52726;48.852;9.152;2023-07-31T12:17:14;23.54;55.09
65972;SHT31;52726;48.852;9.152;2023-07-31T12:19:40;23.54;55.78
65972;SHT31;52726;48.852;9.152;2023-07-31T12:22:15;23.61;56.86
65972;SHT31;52726;48.852;9.152;2023-07-31T12:24:44;23.82;56.37
65972;SHT31;52726;48.852;9.152;2023-07-31T12:27:14;24.04;55.67
65972;SHT31;52726;48.852;9.152;2023-07-31T12:29:42;24.33;55.08
65972;SHT31;52726;48.852;9.152;2023-07-31T12:32:20;24.53;53.08
65972;SHT31;52726;48.852;9.152;2023-07-31T12:34:45;24.59;54.58
65972;SHT31;52726;48.852;9.152;2023-07-31T12:37:10;24.59;53.10
65972;SHT31;52726;48.852;9.152;2023-07-31T12:39:36;24.62;53.10
65972;SHT31;52726;48.852;9.152;2023-07-31T12:42:01;24.46;54.42
65972;SHT31;52726;48.852;9.152;2023-07-31T12:44:27;24.28;52.92
65972;SHT31;52726;48.852;9.152;2023-07-31T12:46:52;23.93;53.59
65972;SHT31;52726;48.852;9.152;2023-07-31T12:49:18;23.97;54.57
65972;SHT31;52726;48.852;9.152;2023-07-31T12:51:43;23.95;54.66
65972;SHT31;52726;48.852;9.152;2023-07-31T12:54:08;23.94;54.31
65972;SHT31;52726;48.852;9.152;2023-07-31T12:56:34;23.82;54.03
65972;SHT31;52726;48.852;9.152;2023-07-31T12:58:59;23.79;53.59
65972;SHT31;52726;48.852;9.152;2023-07-31T13:01:24;23.79;54.19
65972;SHT31;52726;48.852;9.152;2023-07-31T13:03:50;23.88;54.31
65972;SHT31;52726;48.852;9.152;2023-07-31T13:06:15;23.82;54.26
65972;SHT31;52726;48.852;9.152;2023-07-31T13:08:40;23.74;53.71
65972;SHT31;52726;48.852;9.152;2023-07-31T13:11:05;23.63;54.01
65972;SHT31;52726;48.852;9.152;2023-07-31T13:13:31;23.49;53.99
65972;SHT31;52726;48.852;9.152;2023-07-31T13:15:56;23.51;54.33
65972;SHT31;52726;48.852;9.152;2023-07-31T13:18:22;23.50;54.37
65972;SHT31;52726;48.852;9.152;2023-07-31T13:20:47;23.45;54.30
65972;SHT31;52726;48.852;9.152;2023-07-31T13:23:12;23.33;55.39
65972;SHT31;52726;48.852;9.152;2023-07-31T13:25:38;23.32;54.96
65972;SHT31;52726;48.852;9.152;2023-07-31T13:28:03;23.34;55.61
65972;SHT31;52726;48.852;9.152;2023-07-31T13:30:28;23.56;54.44
65972;SHT31;52726;48.852;9.152;2023-07-31T13:32:54;23.75;54.76
65972;SHT31;52726;48.852;9.152;2023-07-31T13:35:19;23.79;54.14
65972;SHT31;52726;48.852;9.152;2023-07-31T13:37:44;24.02;53.80
65972;SHT31;52726;48.852;9.152;2023-07-31T13:40:10;23.97;53.80
65972;SHT31;52726;48.852;9.152;2023-07-31T13:42:35;23.93;52.60
65972;SHT31;52726;48.852;9.152;2023-07-31T13:45:01;23.93;52.42
65972;SHT31;52726;48.852;9.152;2023-07-31T13:47:26;24.09;53.58
65972;SHT31;52726;48.852;9.152;2023-07-31T13:49:51;24.22;53.91
65972;SHT31;52726;48.852;9.152;2023-07-31T13:52:17;24.05;52.67
65972;SHT31;52726;48.852;9.152;2023-07-31T13:54:42;24.14;53.65
65972;SHT31;52726;48.852;9.152;2023-07-31T13:57:08;24.15;53.33
65972;SHT31;52726;48.852;9.152;2023-07-31T13:59:33;24.28;54.25
65972;SHT31;52726;48.852;9.152;2023-07-31T14:01:59;24.32;55.04
65972;SHT31;52726;48.852;9.152;2023-07-31T14:04:26;24.35;54.36
65972;SHT31;52726;48.852;9.152;2023-07-31T14:06:52;24.30;54.26
65972;SHT31;52726;48.852;9.152;2023-07-31T14:09:17;24.22;53.87
65972;SHT31;52726;48.852;9.152;2023-07-31T14:11:43;23.89;52.87
65972;SHT31;52726;48.852;9.152;2023-07-31T14:14:09;24.01;54.50
65972;SHT31;52726;48.852;9.152;2023-07-31T14:16:35;24.14;55.14
65972;SHT31;52726;48.852;9.152;2023-07-31T14:19:00;24.21;54.71
65972;SHT31;52726;48.852;9.152;2023-07-31T14:21:25;24.42;55.64
65972;SHT31;52726;48.852;9.152;2023-07-31T14:23:51;24.46;54.44
65972;SHT31;52726;48.852;9.152;2023-07-31T14:26:16;24.55;54.93
65972;SHT31;52726;48.852;9.152;2023-07-31T14:28:42;24.43;53.88
65972;SHT31;52726;48.852;9.152;2023-07-31T14:31:07;24.26;53.48
65972;SHT31;52726;48.852;9.152;2023-07-31T14:33:39;24.12;53.95
65972;SHT31;52726;48.852;9.152;2023-07-31T14:36:07;24.24;55.53
65972;SHT31;52726;48.852;9.152;2023-07-31T14:38:42;24.28;55.20
65972;SHT31;52726;48.852;9.152;2023-07-31T14:41:08;24.24;55.10
65972;SHT31;52726;48.852;9.152;2023-07-31T14:43:36;24.26;55.28
65972;SHT31;52726;48.852;9.152;2023-07-31T14:46:02;24.35;54.30
65972;SHT31;52726;48.852;9.152;2023-07-31T14:48:27;24.36;53.69
65972;SHT31;52726;48.852;9.152;2023-07-31T14:50:54;24.29;54.93
65972;SHT31;52726;48.852;9.152;2023-07-31T14:53:19;24.32;55.50
65972;SHT31;52726;48.852;9.152;2023-07-31T14:55:44;24.26;54.90
65972;SHT31;52726;48.852;9.152;2023-07-31T14:58:10;24.22;55.44
65972;SHT31;52726;48.852;9.152;2023-07-31T15:00:36;24.18;55.39
65972;SHT31;52726;48.852;9.152;2023-07-31T15:03:03;24.30;56.15
65972;SHT31;52726;48.852;9.152;2023-07-31T15:05:28;24.32;55.71
65972;SHT31;52726;48.852;9.152;2023-07-31T15:07:53;24.28;55.21
65972;SHT31;52726;48.852;9.152;2023-07-31T15:10:19;24.39;55.87
65972;SHT31;52726;48.852;9.152;2023-07-31T15:12:45;24.40;55.50
65972;SHT31;52726;48.852;9.152;2023-07-31T15:15:10;24.46;54.76
65972;SHT31;52726;48.852;9.152;2023-07-31T15:17:35;24.33;54.51
65972;SHT31;52726;48.852;9.152;2023-07-31T15:20:01;24.32;54.82
65972;SHT31;52726;48.852;9.152;2023-07-31T15:22:26;24.24;55.68
65972;SHT31;52726;48.852;9.152;2023-07-31T15:24:51;24.11;54.89
65972;SHT31;52726;48.852;9.152;2023-07-31T15:27:17;24.05;54.97
65972;SHT31;52726;48.852;9.152;2023-07-31T15:29:42;24.01;54.87